Time;durP1;ratioP1;P1;durP2;ratioP2;P2;SDS_P1;SDS_P2;PMS_P1;PMS_P2;Temp;Humidity;BMP_temperature;BMP_pressure;BME280_temperature;BME280_humidity;BME280_pressure;Samples;Min_cycle;Max_cycle;Signal;HPM_P1;HPM_P2
2023/04/22 00:00:10;;;;;;;;;;;;;;;21.03;49.94;101026.84;4926497;29;2985;-71
2023/04/22 00:02:37;;;;;;;;;;;;;;;21.04;49.85;101019.69;4933624;29;2971;-71
2023/04/22 00:05:05;;;;;;;;;;;;;;;21.03;50.03;101018.22;4923384;29;3035;-71
2023/04/22 00:07:31;;;;;;;;;;;;;;;21.02;49.90;101010.97;4920822;29;3127;-71
2023/04/22 00:09:58;;;;;;;;;;;;;;;21.01;49.91;101003.72;4924956;29;3161;-71
2023/04/22 00:12:24;;;;;;;;;;;;;;;21.02;49.91;101010.97;4914750;29;2569;-71
2023/04/22 00:14:50;;;;;;;;;;;;;;;21.00;50.08;101002.97;4925349;29;2704;-71
2023/04/22 00:17:17;;;;;;;;;;;;;;;21.00;49.83;101005.84;4923343;29;2827;-71
2023/04/22 00:19:43;;;;;;;;;;;;;;;21.00;49.87;100997.19;4926765;29;2992;-71
2023/04/22 00:22:10;;;;;;;;;;;;;;;21.00;49.96;100991.44;4930418;29;3102;-70
2023/04/22 00:24:36;;;;;;;;;;;;;;;21.01;50.09;100992.94;4922065;29;2965;-71
2023/04/22 00:27:03;;;;;;;;;;;;;;;20.99;50.06;100983.47;4925689;29;3170;-71
2023/04/22 00:29:29;;;;;;;;;;;;;;;21.00;50.23;100979.94;4904707;29;2724;-71
2023/04/22 00:31:55;;;;;;;;;;;;;;;21.00;50.02;100984.94;4924902;29;2296;-71
2023/04/22 00:34:22;;;;;;;;;;;;;;;20.99;50.14;100975.56;4924014;29;3060;-70
2023/04/22 00:36:50;;;;;;;;;;;;;;;20.99;49.84;100978.44;4907147;29;3184;-70
2023/04/22 00:39:16;;;;;;;;;;;;;;;20.99;50.09;100977.72;4926158;29;3361;-69
2023/04/22 00:41:42;;;;;;;;;;;;;;;20.99;49.86;100977.72;4927203;29;3459;-71
2023/04/22 00:44:12;;;;;;;;;;;;;;;20.99;49.91;100984.22;4930617;29;3086;-71
2023/04/22 00:46:39;;;;;;;;;;;;;;;20.98;50.08;100976.22;4900664;29;2799;-71
2023/04/22 00:49:05;;;;;;;;;;;;;;;20.98;50.06;100979.09;4929654;29;3149;-70
2023/04/22 00:51:32;;;;;;;;;;;;;;;20.97;49.85;100974.75;4921658;29;3200;-70
2023/04/22 00:54:00;;;;;;;;;;;;;;;20.98;50.09;100976.22;4911616;29;3355;-71
2023/04/22 00:56:27;;;;;;;;;;;;;;;20.97;49.89;100974.75;4907779;29;3113;-71
2023/04/22 00:58:53;;;;;;;;;;;;;;;20.96;49.95;100967.47;4910834;29;3085;-71
2023/04/22 01:01:19;;;;;;;;;;;;;;;20.96;50.04;100971.13;4931026;29;3134;-70
2023/04/22 01:03:46;;;;;;;;;;;;;;;20.97;50.00;100966.09;4929126;29;2760;-71
2023/04/22 01:06:13;;;;;;;;;;;;;;;20.95;49.91;100966.75;4907826;29;3205;-71
2023/04/22 01:08:39;;;;;;;;;;;;;;;20.95;49.78;100961.00;4896110;29;2829;-71
2023/04/22 01:11:06;;;;;;;;;;;;;;;20.95;50.12;100963.88;4893867;29;3171;-71
2023/04/22 01:13:32;;;;;;;;;;;;;;;20.96;50.04;100953.09;4911742;29;3426;-70
2023/04/22 01:15:59;;;;;;;;;;;;;;;20.93;49.81;100953.00;4920394;29;3119;-73
2023/04/22 01:18:25;;;;;;;;;;;;;;;20.95;50.06;100954.50;4920393;29;3298;-73
2023/04/22 01:20:55;;;;;;;;;;;;;;;20.94;49.90;100953.75;4921201;29;3173;-72
2023/04/22 01:23:21;;;;;;;;;;;;;;;20.97;50.00;100946.69;4919687;29;3386;-72
2023/04/22 01:25:47;;;;;;;;;;;;;;;20.97;49.95;100940.94;4925147;29;3280;-72
2023/04/22 01:28:14;;;;;;;;;;;;;;;20.99;49.94;100943.16;4912567;29;3234;-73
2023/04/22 01:30:41;;;;;;;;;;;;;;;20.97;50.07;100946.69;4915243;29;3071;-72
2023/04/22 01:33:07;;;;;;;;;;;;;;;20.97;50.25;100943.81;4907395;29;3136;-70
2023/04/22 01:35:35;;;;;;;;;;;;;;;20.97;50.08;100940.94;4906496;29;3317;-70
2023/04/22 01:38:02;;;;;;;;;;;;;;;20.96;50.11;100939.47;4926569;29;3397;-70
2023/04/22 01:40:30;;;;;;;;;;;;;;;20.95;50.24;100934.34;4922911;29;3373;-71
2023/04/22 01:42:56;;;;;;;;;;;;;;;20.93;50.27;100935.72;4923034;29;3183;-71
2023/04/22 01:45:23;;;;;;;;;;;;;;;20.92;50.40;100930.63;4900055;29;3614;-71
2023/04/22 01:47:49;;;;;;;;;;;;;;;20.91;50.30;100932.78;4927623;29;3082;-71
2023/04/22 01:50:16;;;;;;;;;;;;;;;20.91;50.34;100935.66;4907214;29;3175;-70
2023/04/22 01:52:44;;;;;;;;;;;;;;;20.92;50.55;100924.88;4911221;29;3406;-71
2023/04/22 01:55:10;;;;;;;;;;;;;;;20.90;50.33;100931.28;4924225;29;3067;-70
2023/04/22 01:57:36;;;;;;;;;;;;;;;20.90;50.30;100925.53;4924609;29;3094;-71
2023/04/22 02:00:04;;;;;;;;;;;;;;;20.90;50.48;100919.75;4913845;29;3385;-70
2023/04/22 02:02:37;;;;;;;;;;;;;;;20.89;50.35;100924.06;4923256;29;3172;-70
2023/04/22 02:05:05;;;;;;;;;;;;;;;20.90;50.51;100921.91;4920505;29;3178;-70
2023/04/22 02:07:31;;;;;;;;;;;;;;;20.89;50.24;100912.53;4922905;29;3183;-71
2023/04/22 02:09:58;;;;;;;;;;;;;;;20.88;50.24;100922.53;4923728;29;3203;-69
2023/04/22 02:12:24;;;;;;;;;;;;;;;20.88;50.21;100913.91;4919939;29;2698;-76
2023/04/22 02:14:51;;;;;;;;;;;;;;;20.88;50.37;100905.28;4929492;29;2698;-68
2023/04/22 02:17:17;;;;;;;;;;;;;;;20.88;50.32;100904.53;4925339;29;3182;-69
2023/04/22 02:19:44;;;;;;;;;;;;;;;20.87;50.26;100906.69;4916099;29;3150;-68
2023/04/22 02:22:11;;;;;;;;;;;;;;;20.87;50.34;100898.06;4927909;29;3115;-68
2023/04/22 02:24:37;;;;;;;;;;;;;;;20.87;50.16;100898.06;4930990;29;3127;-68
2023/04/22 02:27:04;;;;;;;;;;;;;;;20.87;50.32;100900.94;4914933;29;3136;-68
2023/04/22 02:29:31;;;;;;;;;;;;;;;20.86;50.18;100895.81;4923955;29;1711;-68
2023/04/22 02:32:00;;;;;;;;;;;;;;;20.86;50.12;100898.69;4925029;29;3194;-68
2023/04/22 02:34:27;;;;;;;;;;;;;;;20.86;49.98;100896.53;4927145;29;3184;-68
2023/04/22 02:36:53;;;;;;;;;;;;;;;20.86;50.18;100902.31;4900176;29;3186;-67
2023/04/22 02:39:19;;;;;;;;;;;;;;;20.86;50.14;100895.81;4925687;29;3253;-68
2023/04/22 02:41:46;;;;;;;;;;;;;;;20.85;50.07;100892.19;4925395;29;3188;-67
2023/04/22 02:44:14;;;;;;;;;;;;;;;20.85;50.08;100889.31;4908485;29;3130;-68
2023/04/22 02:46:40;;;;;;;;;;;;;;;20.85;49.84;100895.06;4930075;29;3241;-68
2023/04/22 02:49:07;;;;;;;;;;;;;;;20.85;49.94;100889.31;4908405;29;3215;-68
2023/04/22 02:51:33;;;;;;;;;;;;;;;20.86;49.83;100895.81;4917123;29;3206;-68
2023/04/22 02:53:59;;;;;;;;;;;;;;;20.87;49.72;100885.81;4924397;29;3059;-68
2023/04/22 02:56:26;;;;;;;;;;;;;;;20.87;49.89;100892.28;4931709;29;3110;-68
2023/04/22 02:58:52;;;;;;;;;;;;;;;20.87;49.80;100892.28;4908141;29;2312;-68
2023/04/22 03:01:18;;;;;;;;;;;;;;;20.87;49.87;100891.56;4924051;29;3065;-68
2023/04/22 03:03:45;;;;;;;;;;;;;;;20.87;49.99;100892.28;4923795;29;3199;-68
2023/04/22 03:06:17;;;;;;;;;;;;;;;20.87;49.90;100886.53;4913022;29;2598;-68
2023/04/22 03:08:44;;;;;;;;;;;;;;;20.87;49.77;100891.56;4910346;29;3060;-68
2023/04/22 03:11:10;;;;;;;;;;;;;;;20.87;49.72;100892.28;4907425;29;3155;-68
2023/04/22 03:13:36;;;;;;;;;;;;;;;20.87;49.92;100885.81;4928930;29;3110;-67
2023/04/22 03:16:03;;;;;;;;;;;;;;;20.85;49.84;100883.56;4910376;29;3208;-67
2023/04/22 03:18:30;;;;;;;;;;;;;;;20.86;49.72;100884.31;4931374;29;3068;-68
2023/04/22 03:20:56;;;;;;;;;;;;;;;20.86;49.92;100879.28;4924544;29;2552;-68
2023/04/22 03:23:23;;;;;;;;;;;;;;;20.86;49.80;100885.03;4930793;29;2264;-68
2023/04/22 03:25:49;;;;;;;;;;;;;;;20.85;49.97;100880.69;4895988;29;3242;-68
2023/04/22 03:28:16;;;;;;;;;;;;;;;20.85;49.86;100886.44;4909562;29;3142;-68
2023/04/22 03:30:43;;;;;;;;;;;;;;;20.85;49.82;100886.44;4894742;29;3433;-68
2023/04/22 03:33:10;;;;;;;;;;;;;;;20.84;49.79;100882.06;4905787;29;3087;-68
2023/04/22 03:35:41;;;;;;;;;;;;;;;20.84;49.91;100890.69;4912058;29;3024;-68
2023/04/22 03:38:08;;;;;;;;;;;;;;;20.83;49.83;100883.47;4912345;29;3164;-68
2023/04/22 03:40:36;;;;;;;;;;;;;;;20.83;49.80;100880.59;4910693;29;3112;-67
2023/04/22 03:43:10;;;;;;;;;;;;;;;20.83;49.72;100880.59;4919340;29;3139;-68
2023/04/22 03:45:38;;;;;;;;;;;;;;;20.83;49.74;100883.47;4900218;29;3033;-68
2023/04/22 03:48:25;;;;;;;;;;;;;;;20.83;49.56;100879.84;4917868;29;3321;-67
2023/04/22 03:50:52;;;;;;;;;;;;;;;20.82;49.74;100873.38;4899890;29;3054;-68
2023/04/22 03:53:18;;;;;;;;;;;;;;;20.82;49.66;100875.47;4923555;29;3178;-68
2023/04/22 03:55:45;;;;;;;;;;;;;;;20.81;49.51;100883.38;4913817;29;3306;-68
2023/04/22 03:58:13;;;;;;;;;;;;;;;20.81;49.64;100877.63;4913682;29;3104;-68
2023/04/22 04:00:40;;;;;;;;;;;;;;;20.80;49.75;100872.50;4916575;29;3201;-68
2023/04/22 04:03:12;;;;;;;;;;;;;;;20.80;49.63;100881.91;4913558;29;3206;-67
2023/04/22 04:05:39;;;;;;;;;;;;;;;20.80;49.67;100873.28;4910723;29;3095;-68
2023/04/22 04:08:07;;;;;;;;;;;;;;;20.79;49.64;100880.41;4912524;29;3219;-68
2023/04/22 04:10:35;;;;;;;;;;;;;;;20.78;49.47;100876.06;4917704;29;3358;-68
2023/04/22 04:13:01;;;;;;;;;;;;;;;20.78;49.81;100878.94;4911921;29;3183;-67
2023/04/22 04:15:35;;;;;;;;;;;;;;;20.78;49.43;100878.19;4914336;29;3203;-68
2023/04/22 04:18:02;;;;;;;;;;;;;;;20.78;49.75;100878.19;4912237;29;3231;-68
2023/04/22 04:20:31;;;;;;;;;;;;;;;20.78;49.69;100872.44;4912405;29;3163;-67
2023/04/22 04:22:57;;;;;;;;;;;;;;;20.76;49.56;100893.22;4904008;29;3119;-68
2023/04/22 04:25:24;;;;;;;;;;;;;;;20.75;49.56;100883.09;4911518;29;3190;-68
2023/04/22 04:27:51;;;;;;;;;;;;;;;20.76;49.54;100887.47;4925091;29;3272;-68
2023/04/22 04:30:18;;;;;;;;;;;;;;;20.75;49.76;100885.25;4914247;29;3211;-67
2023/04/22 04:32:49;;;;;;;;;;;;;;;20.76;49.55;100884.59;4912313;29;3282;-68
2023/04/22 04:35:17;;;;;;;;;;;;;;;20.75;49.73;100885.97;4908200;29;3218;-68
2023/04/22 04:37:49;;;;;;;;;;;;;;;20.75;49.75;100873.72;4921567;29;3075;-68
2023/04/22 04:40:16;;;;;;;;;;;;;;;20.73;49.75;100871.53;4921429;29;3108;-68
2023/04/22 04:42:52;;;;;;;;;;;;;;;20.74;49.58;100878.00;4904780;29;3365;-67
2023/04/22 04:45:22;;;;;;;;;;;;;;;20.73;49.68;100877.28;4910860;29;3075;-68
2023/04/22 04:47:49;;;;;;;;;;;;;;;20.73;49.51;100877.28;4923283;29;1687;-68
2023/04/22 04:50:21;;;;;;;;;;;;;;;20.72;49.59;100875.78;4912431;29;2730;-67
2023/04/22 04:52:48;;;;;;;;;;;;;;;20.72;49.69;100875.78;4905982;29;3037;-68
2023/04/22 04:55:17;;;;;;;;;;;;;;;20.73;49.69;100876.50;4909809;29;3027;-68
2023/04/22 04:57:44;;;;;;;;;;;;;;;20.71;49.56;100877.91;4907994;29;3063;-68
2023/04/22 05:00:12;;;;;;;;;;;;;;;20.72;49.55;100875.78;4909717;29;3165;-68
2023/04/22 05:02:39;;;;;;;;;;;;;;;20.71;49.63;100877.19;4913491;29;3206;-67
2023/04/22 05:05:07;;;;;;;;;;;;;;;20.70;49.61;100872.81;4914067;29;2587;-68
2023/04/22 05:07:35;;;;;;;;;;;;;;;20.70;49.69;100867.03;4922505;29;2354;-68
2023/04/22 05:10:01;;;;;;;;;;;;;;;20.70;49.53;100872.81;4926580;29;3028;-68
2023/04/22 05:12:28;;;;;;;;;;;;;;;20.69;49.49;100862.69;4922019;29;3206;-68
2023/04/22 05:14:55;;;;;;;;;;;;;;;20.69;49.57;100866.31;4908849;29;3187;-68
2023/04/22 05:17:21;;;;;;;;;;;;;;;20.68;49.71;100866.94;4909474;29;3146;-68
2023/04/22 05:19:47;;;;;;;;;;;;;;;20.68;49.75;100864.06;4906942;29;3227;-68
2023/04/22 05:22:14;;;;;;;;;;;;;;;20.70;49.58;100864.16;4891710;29;3158;-67
2023/04/22 05:24:42;;;;;;;;;;;;;;;20.71;49.58;100865.66;4918914;29;3110;-67
2023/04/22 05:27:08;;;;;;;;;;;;;;;20.72;49.53;100875.78;4905898;29;2571;-68
2023/04/22 05:29:35;;;;;;;;;;;;;;;20.72;49.39;100875.78;4897076;29;2621;-68
2023/04/22 05:32:03;;;;;;;;;;;;;;;20.74;49.72;100889.53;4909152;29;3100;-68
2023/04/22 05:34:30;;;;;;;;;;;;;;;20.75;49.40;100879.47;4893966;29;3212;-67
2023/04/22 05:36:56;;;;;;;;;;;;;;;20.76;49.44;100881.72;4911805;29;2913;-67
2023/04/22 05:39:24;;;;;;;;;;;;;;;20.77;49.62;100880.31;4893836;29;3223;-67
2023/04/22 05:41:50;;;;;;;;;;;;;;;20.77;49.70;100886.06;4907489;29;3131;-67
2023/04/22 05:44:17;;;;;;;;;;;;;;;20.78;49.51;100893.31;4918933;29;3382;-68
2023/04/22 05:46:43;;;;;;;;;;;;;;;20.79;49.66;100886.16;4918386;29;3441;-67
2023/04/22 05:49:10;;;;;;;;;;;;;;;20.79;49.75;100888.31;4907892;29;2977;-67
2023/04/22 05:51:59;;;;;;;;;;;;;;;20.78;49.75;100884.69;4915382;29;3030;-68
2023/04/22 05:54:32;;;;;;;;;;;;;;;20.79;49.63;100885.44;4917304;29;3194;-69
2023/04/22 05:57:01;;;;;;;;;;;;;;;20.78;49.37;100890.44;4902918;29;3028;-69
2023/04/22 05:59:27;;;;;;;;;;;;;;;20.78;49.51;100893.31;4905651;29;3574;-69
2023/04/22 06:01:54;;;;;;;;;;;;;;;20.79;49.62;100899.81;4913789;29;3657;-69
2023/04/22 06:04:21;;;;;;;;;;;;;;;20.79;49.79;100894.78;4913508;29;2983;-69
2023/04/22 06:06:48;;;;;;;;;;;;;;;20.78;49.77;100893.31;4907696;29;3160;-69
2023/04/22 06:09:15;;;;;;;;;;;;;;;20.78;49.75;100890.44;4904850;29;3079;-69
2023/04/22 06:11:41;;;;;;;;;;;;;;;20.77;49.90;100882.44;4903993;29;3074;-82
2023/04/22 06:14:07;;;;;;;;;;;;;;;20.78;49.97;100886.84;4904702;29;3252;-81
2023/04/22 06:16:34;;;;;;;;;;;;;;;20.79;49.90;100889.03;4902956;29;2930;-81
2023/04/22 06:19:02;;;;;;;;;;;;;;;20.78;49.98;100884.69;4907256;29;2616;-80
2023/04/22 06:21:31;;;;;;;;;;;;;;;20.77;49.78;100886.06;4906903;29;3062;-79
2023/04/22 06:23:58;;;;;;;;;;;;;;;20.77;49.85;100894.69;4906126;29;3245;-80
2023/04/22 06:26:25;;;;;;;;;;;;;;;20.81;49.89;100883.38;4908389;29;1889;-79
2023/04/22 06:28:52;;;;;;;;;;;;;;;20.83;49.79;100883.47;4914736;29;1799;-79
2023/04/22 06:31:19;;;;;;;;;;;;;;;20.79;49.84;100885.44;4907125;29;2705;-79
2023/04/22 06:33:46;;;;;;;;;;;;;;;20.74;49.64;100886.66;4894169;29;3407;-82
2023/04/22 06:36:13;;;;;;;;;;;;;;;20.21;43.08;100885.66;4906755;29;3136;-79
2023/04/22 06:38:41;;;;;;;;;;;;;;;19.83;41.92;100881.66;4907905;29;3178;-75
2023/04/22 06:41:22;;;;;;;;;;;;;;;20.06;42.82;100878.47;4925099;29;3029;-74
2023/04/22 06:43:51;;;;;;;;;;;;;;;20.42;43.29;100878.72;4909891;29;3119;-69
2023/04/22 06:46:37;;;;;;;;;;;;;;;20.57;43.39;100885.91;4901225;29;3336;-71
2023/04/22 06:49:24;;;;;;;;;;;;;;;20.61;44.10;100882.47;4903272;29;3182;-70
2023/04/22 06:52:09;;;;;;;;;;;;;;;20.66;44.76;100881.25;4896585;29;3252;-65
2023/04/22 06:54:37;;;;;;;;;;;;;;;20.72;44.86;100870.03;4907190;29;2950;-66
2023/04/22 06:57:03;;;;;;;;;;;;;;;20.73;45.13;100883.03;4905727;29;3140;-66
2023/04/22 06:59:29;;;;;;;;;;;;;;;20.74;44.77;100890.25;4914855;29;3195;-65
2023/04/22 07:01:56;;;;;;;;;;;;;;;20.75;45.39;100885.97;4905201;29;3004;-66
2023/04/22 07:04:23;;;;;;;;;;;;;;;20.76;45.53;100890.34;4908490;29;3124;-66
2023/04/22 07:06:49;;;;;;;;;;;;;;;20.77;45.61;100893.97;4906146;29;2989;-66
2023/04/22 07:09:16;;;;;;;;;;;;;;;20.77;45.53;100891.09;4907853;29;2959;-67
2023/04/22 07:11:42;;;;;;;;;;;;;;;20.77;45.81;100883.19;4904706;29;2918;-66
2023/04/22 07:14:15;;;;;;;;;;;;;;;20.78;45.67;100878.94;4905057;29;3019;-66
2023/04/22 07:16:41;;;;;;;;;;;;;;;20.79;46.04;100877.53;4898535;29;3295;-66
2023/04/22 07:19:07;;;;;;;;;;;;;;;20.80;45.99;100876.16;4905584;29;3148;-66
2023/04/22 07:21:34;;;;;;;;;;;;;;;20.79;45.95;100871.78;4920095;29;3063;-66
2023/04/22 07:24:00;;;;;;;;;;;;;;;20.79;46.19;100874.66;4928485;29;2992;-66
2023/04/22 07:26:26;;;;;;;;;;;;;;;20.81;46.02;100876.88;4919298;29;3024;-66
2023/04/22 07:28:53;;;;;;;;;;;;;;;20.77;46.28;100871.69;4930442;29;3075;-66
2023/04/22 07:31:19;;;;;;;;;;;;;;;20.80;46.44;100881.13;4921435;29;3213;-65
2023/04/22 07:33:46;;;;;;;;;;;;;;;20.82;46.25;100879.13;4921340;29;3184;-69
2023/04/22 07:36:12;;;;;;;;;;;;;;;20.87;46.57;100874.28;4931780;29;2980;-71
2023/04/22 07:38:38;;;;;;;;;;;;;;;20.87;46.76;100880.03;4916381;29;3210;-67
2023/04/22 07:41:05;;;;;;;;;;;;;;;20.90;46.75;100873.72;4915175;29;3193;-67
2023/04/22 07:43:31;;;;;;;;;;;;;;;20.86;46.89;100873.53;4911936;29;3246;-67
2023/04/22 07:45:57;;;;;;;;;;;;;;;20.86;46.90;100867.78;4909089;29;3129;-68
2023/04/22 07:48:24;;;;;;;;;;;;;;;20.89;47.10;100869.34;4916975;29;2968;-67
2023/04/22 07:50:50;;;;;;;;;;;;;;;20.88;47.58;100864.97;4914977;29;2957;-67
2023/04/22 07:53:17;;;;;;;;;;;;;;;20.91;47.52;100857.94;4918940;29;2738;-67
2023/04/22 07:55:43;;;;;;;;;;;;;;;20.91;47.78;100857.19;4922305;29;2742;-67
2023/04/22 07:58:09;;;;;;;;;;;;;;;20.89;47.97;100854.97;4922118;29;2759;-66
2023/04/22 08:00:36;;;;;;;;;;;;;;;20.92;47.90;100847.16;4909921;29;2929;-66
2023/04/22 08:03:02;;;;;;;;;;;;;;;20.92;47.98;100850.78;4914518;29;2769;-67
2023/04/22 08:05:29;;;;;;;;;;;;;;;20.91;48.29;100849.31;4903446;29;2700;-66
2023/04/22 08:07:55;;;;;;;;;;;;;;;20.91;48.34;100852.19;4917909;29;2688;-66
2023/04/22 08:10:22;;;;;;;;;;;;;;;20.94;48.48;100850.13;4915430;29;2985;-66
2023/04/22 08:12:48;;;;;;;;;;;;;;;20.97;48.45;100839.44;4920337;29;2845;-66
2023/04/22 08:15:14;;;;;;;;;;;;;;;20.96;48.57;100840.81;4914090;29;3183;-75
2023/04/22 08:17:41;;;;;;;;;;;;;;;20.97;48.53;100842.31;4919702;29;2976;-71
2023/04/22 08:20:08;;;;;;;;;;;;;;;20.99;48.54;100834.50;4920365;29;3290;-75
2023/04/22 08:22:34;;;;;;;;;;;;;;;21.01;48.60;100836.75;4928332;29;2764;-74
2023/04/22 08:25:00;;;;;;;;;;;;;;;21.01;48.70;100848.25;4925458;29;3055;-74
2023/04/22 08:27:27;;;;;;;;;;;;;;;21.00;48.89;100838.13;4934635;29;2760;-74
2023/04/22 08:29:53;;;;;;;;;;;;;;;21.01;48.79;100839.63;4925035;29;3177;-75
2023/04/22 08:32:21;;;;;;;;;;;;;;;21.03;48.77;100845.47;4925569;29;2743;-74
2023/04/22 08:34:47;;;;;;;;;;;;;;;20.94;48.96;100838.63;4921318;29;3007;-73
2023/04/22 08:37:19;;;;;;;;;;;;;;;20.89;49.27;100837.69;4917400;29;3064;-72
2023/04/22 08:39:45;;;;;;;;;;;;;;;20.91;49.34;100840.66;4921315;29;2945;-74
2023/04/22 08:42:11;;;;;;;;;;;;;;;20.98;48.71;100843.78;4918667;29;3056;-73
2023/04/22 08:44:38;;;;;;;;;;;;;;;20.98;48.45;100846.66;4925693;29;2720;-74
2023/04/22 08:47:04;;;;;;;;;;;;;;;20.99;48.05;100846.03;4909102;29;3105;-73
2023/04/22 08:49:31;;;;;;;;;;;;;;;20.99;47.91;100845.28;4909905;29;3075;-74
2023/04/22 08:51:57;;;;;;;;;;;;;;;20.99;47.83;100840.28;4913108;29;3115;-74
2023/04/22 08:54:24;;;;;;;;;;;;;;;21.03;47.70;100842.59;4935122;29;2646;-73
2023/04/22 08:56:51;;;;;;;;;;;;;;;21.01;47.92;100839.63;4924413;29;3092;-73
2023/04/22 08:59:17;;;;;;;;;;;;;;;21.00;47.93;100835.25;4910511;29;3233;-73
2023/04/22 09:01:43;;;;;;;;;;;;;;;21.01;47.71;100836.75;4922656;29;3332;-73
2023/04/22 09:04:10;;;;;;;;;;;;;;;21.03;47.87;100828.19;4909003;29;3143;-73
2023/04/22 09:06:37;;;;;;;;;;;;;;;21.04;47.79;100823.91;4904383;29;3135;-73
2023/04/22 09:09:03;;;;;;;;;;;;;;;21.03;47.75;100828.94;4925189;29;3439;-73
2023/04/22 09:11:30;;;;;;;;;;;;;;;21.02;47.78;100820.94;4913587;29;2815;-74
2023/04/22 09:13:56;;;;;;;;;;;;;;;21.04;48.06;100812.41;4924341;29;3188;-73
2023/04/22 09:16:23;;;;;;;;;;;;;;;21.05;48.11;100822.50;4922883;29;3697;-74
2023/04/22 09:18:49;;;;;;;;;;;;;;;21.06;48.14;100827.63;4925241;29;3068;-73
2023/04/22 09:21:16;;;;;;;;;;;;;;;21.06;48.16;100818.25;4923592;29;3110;-73
2023/04/22 09:23:46;;;;;;;;;;;;;;;21.07;48.05;100811.09;4920546;29;3583;-73
2023/04/22 09:26:13;;;;;;;;;;;;;;;21.04;48.36;100812.41;4919918;29;2965;-73
2023/04/22 09:28:47;;;;;;;;;;;;;;;21.06;48.14;100807.47;4922818;29;3140;-73
2023/04/22 09:31:13;;;;;;;;;;;;;;;21.05;48.47;100800.25;4921749;28;2940;-75
2023/04/22 09:33:40;;;;;;;;;;;;;;;21.06;48.33;100803.84;4923085;29;3005;-75
2023/04/22 09:36:09;;;;;;;;;;;;;;;21.08;48.26;100801.06;4920988;29;3108;-75
2023/04/22 09:38:35;;;;;;;;;;;;;;;21.07;48.34;100793.81;4917823;29;3006;-75
2023/04/22 09:41:07;;;;;;;;;;;;;;;21.04;48.37;100795.13;4925939;29;3087;-73
2023/04/22 09:43:33;;;;;;;;;;;;;;;21.01;48.70;100796.44;4921670;29;3485;-74
2023/04/22 09:46:00;;;;;;;;;;;;;;;21.04;48.69;100795.84;4905496;29;3017;-74
2023/04/22 09:48:26;;;;;;;;;;;;;;;21.03;48.41;100782.13;4919322;29;3091;-74
2023/04/22 09:50:52;;;;;;;;;;;;;;;21.07;48.36;100788.03;4905186;29;3122;-75
2023/04/22 09:53:19;;;;;;;;;;;;;;;21.07;48.18;100782.28;4925876;29;3376;-74
2023/04/22 09:55:47;;;;;;;;;;;;;;;21.08;48.10;100775.88;4920160;29;3000;-75
2023/04/22 09:58:13;;;;;;;;;;;;;;;21.09;48.46;100773.75;4908231;29;3111;-74
2023/04/22 10:00:41;;;;;;;;;;;;;;;21.09;48.25;100773.75;4927364;29;2643;-74
2023/04/22 10:03:07;;;;;;;;;;;;;;;21.09;48.24;100776.63;4931011;29;3012;-74
2023/04/22 10:05:36;;;;;;;;;;;;;;;21.07;48.36;100767.91;4921186;29;3227;-74
2023/04/22 10:08:04;;;;;;;;;;;;;;;21.09;48.47;100765.84;4920132;29;3252;-74
2023/04/22 10:10:30;;;;;;;;;;;;;;;21.09;48.53;100757.19;4926682;29;3163;-72
2023/04/22 10:12:56;;;;;;;;;;;;;;;21.08;48.49;100760.75;4927270;29;3119;-74
2023/04/22 10:15:23;;;;;;;;;;;;;;;21.06;48.67;100752.75;4928782;29;3016;-74
2023/04/22 10:17:52;;;;;;;;;;;;;;;21.09;48.73;100739.19;4900693;29;3116;-74
2023/04/22 10:20:18;;;;;;;;;;;;;;;21.09;48.44;100744.94;4907244;29;2933;-74
2023/04/22 10:22:45;;;;;;;;;;;;;;;21.08;48.51;100737.72;4915776;29;2758;-74
2023/04/22 10:25:22;;;;;;;;;;;;;;;21.09;48.78;100727.69;4924110;29;2955;-74
2023/04/22 10:27:51;;;;;;;;;;;;;;;21.08;48.65;100729.09;4925632;29;3095;-74
2023/04/22 10:30:27;;;;;;;;;;;;;;;21.11;48.63;100724.88;4919564;29;3080;-74
2023/04/22 10:32:54;;;;;;;;;;;;;;;21.08;48.63;100724.06;4922511;29;3004;-74
2023/04/22 10:35:28;;;;;;;;;;;;;;;21.11;48.55;100722.00;4919301;29;3065;-73
2023/04/22 10:37:54;;;;;;;;;;;;;;;21.09;48.82;100716.16;4917870;29;3044;-72
2023/04/22 10:40:21;;;;;;;;;;;;;;;21.12;48.54;100720.63;4919832;29;3037;-72
2023/04/22 10:42:49;;;;;;;;;;;;;;;21.10;48.57;100717.66;4918157;28;2992;-73
2023/04/22 10:45:15;;;;;;;;;;;;;;;21.10;48.65;100717.66;4924013;29;2934;-72
2023/04/22 10:47:41;;;;;;;;;;;;;;;21.08;48.83;100715.44;4923286;29;3100;-73
2023/04/22 10:50:22;;;;;;;;;;;;;;;21.10;48.68;100720.53;4917561;29;2469;-73
2023/04/22 10:52:59;;;;;;;;;;;;;;;21.10;48.74;100714.78;4918107;29;2989;-72
2023/04/22 10:55:25;;;;;;;;;;;;;;;21.11;49.06;100713.38;4925495;29;3145;-72
2023/04/22 10:57:51;;;;;;;;;;;;;;;21.12;48.91;100709.09;4919351;29;3240;-73
2023/04/22 11:00:25;;;;;;;;;;;;;;;21.10;49.02;100714.78;4908889;29;3111;-72
2023/04/22 11:02:56;;;;;;;;;;;;;;;21.10;48.90;100709.03;4928269;29;2715;-72
2023/04/22 11:05:23;;;;;;;;;;;;;;;21.11;48.80;100702.59;4913774;29;3091;-73
2023/04/22 11:07:54;;;;;;;;;;;;;;;21.12;48.85;100709.09;4918885;29;3112;-72
2023/04/22 11:10:31;;;;;;;;;;;;;;;21.12;48.71;100692.56;4917107;29;3195;-72
2023/04/22 11:12:57;;;;;;;;;;;;;;;21.13;48.98;100691.16;4920293;29;3246;-72
2023/04/22 11:15:26;;;;;;;;;;;;;;;21.11;48.81;100685.31;4926298;29;3084;-72
2023/04/22 11:17:52;;;;;;;;;;;;;;;21.11;49.23;100693.22;4919517;29;3163;-71
2023/04/22 11:20:19;;;;;;;;;;;;;;;21.12;48.91;100681.03;4924140;29;2614;-71
2023/04/22 11:22:46;;;;;;;;;;;;;;;21.12;48.93;100674.56;4921327;29;3106;-72
2023/04/22 11:25:13;;;;;;;;;;;;;;;21.15;49.01;100687.63;4918151;29;3178;-72
2023/04/22 11:27:39;;;;;;;;;;;;;;;21.13;49.30;100687.53;4917803;29;3215;-72
2023/04/22 11:30:06;;;;;;;;;;;;;;;21.13;49.46;100687.53;4926220;29;2288;-71
2023/04/22 11:32:33;;;;;;;;;;;;;;;21.13;49.32;100694.03;4925261;29;2687;-72
2023/04/22 11:35:03;;;;;;;;;;;;;;;21.15;49.52;100689.78;4909728;29;3111;-72
2023/04/22 11:37:29;;;;;;;;;;;;;;;21.14;49.51;100683.25;4919050;29;3061;-71
2023/04/22 11:40:00;;;;;;;;;;;;;;;21.15;49.57;100670.34;4924357;29;3083;-72
2023/04/22 11:42:47;;;;;;;;;;;;;;;21.14;49.42;100677.50;4916791;29;3131;-73
2023/04/22 11:45:13;;;;;;;;;;;;;;;21.15;49.65;100673.22;4923000;29;3211;-72
2023/04/22 11:47:40;;;;;;;;;;;;;;;21.15;49.77;100655.22;4906962;29;2797;-72
2023/04/22 11:50:08;;;;;;;;;;;;;;;21.18;49.87;100668.28;4924735;29;3567;-72
2023/04/22 11:52:47;;;;;;;;;;;;;;;21.15;50.10;100667.47;4927320;29;2643;-73
2023/04/22 11:55:19;;;;;;;;;;;;;;;21.18;49.97;100665.41;4925027;29;3467;-72
2023/04/22 11:57:53;;;;;;;;;;;;;;;21.17;50.17;100658.19;4931238;29;3455;-73
2023/04/22 12:00:19;;;;;;;;;;;;;;;21.17;50.31;100664.66;4926105;29;2870;-72
2023/04/22 12:02:55;;;;;;;;;;;;;;;21.17;50.45;100658.91;4905999;29;3159;-72
2023/04/22 12:05:30;;;;;;;;;;;;;;;21.15;50.72;100655.22;4913254;29;3163;-72
2023/04/22 12:07:57;;;;;;;;;;;;;;;21.19;50.47;100666.88;4911429;29;3434;-73
2023/04/22 12:10:23;;;;;;;;;;;;;;;21.19;50.78;100666.88;4908532;29;3020;-73
2023/04/22 12:12:50;;;;;;;;;;;;;;;21.19;50.67;100661.13;4927008;29;3572;-73
2023/04/22 12:15:16;;;;;;;;;;;;;;;21.20;50.92;100669.09;4906907;29;3332;-73
2023/04/22 12:17:44;;;;;;;;;;;;;;;21.18;51.03;100654.63;4925112;29;2777;-74
2023/04/22 12:20:11;;;;;;;;;;;;;;;21.19;51.07;100650.34;4910967;29;2723;-74
2023/04/22 12:22:38;;;;;;;;;;;;;;;21.20;50.79;100654.72;4910790;29;2692;-74
2023/04/22 12:25:05;;;;;;;;;;;;;;;21.20;50.90;100656.84;4920024;29;3261;-74
2023/04/22 12:27:31;;;;;;;;;;;;;;;21.21;51.12;100655.44;4921256;29;3176;-75
2023/04/22 12:29:57;;;;;;;;;;;;;;;21.22;51.12;100659.81;4916877;29;2557;-75
2023/04/22 12:32:24;;;;;;;;;;;;;;;21.21;51.00;100655.44;4923751;29;2786;-74
2023/04/22 12:34:51;;;;;;;;;;;;;;;21.20;51.00;100648.94;4910466;29;2870;-74
2023/04/22 12:37:17;;;;;;;;;;;;;;;21.22;51.20;100649.03;4917271;29;2963;-73
2023/04/22 12:39:44;;;;;;;;;;;;;;;21.21;50.97;100644.69;4932354;29;3041;-75
2023/04/22 12:42:10;;;;;;;;;;;;;;;21.21;51.31;100650.44;4928642;29;2911;-72
2023/04/22 12:44:37;;;;;;;;;;;;;;;21.22;50.71;100643.28;4926972;29;2862;-75
2023/04/22 12:47:03;;;;;;;;;;;;;;;21.26;50.55;100646.31;4921626;29;3153;-74
2023/04/22 12:49:30;;;;;;;;;;;;;;;21.32;47.58;100640.78;4927793;29;2870;-71